sensor_id;sensor_type;location;lat;lon;timestamp;P1;durP1;ratioP1;P2;durP2;ratioP2
76433;SDS011;65265;53.200;6.080;2023-06-04T00:01:24;4.97;;;1.80;;
76433;SDS011;65265;53.200;6.080;2023-06-04T00:06:15;4.32;;;2.33;;
76433;SDS011;65265;53.200;6.080;2023-06-04T00:11:08;5.18;;;1.92;;
76433;SDS011;65265;53.200;6.080;2023-06-04T00:16:00;4.63;;;1.92;;
76433;SDS011;65265;53.200;6.080;2023-06-04T00:20:54;6.15;;;1.15;;
76433;SDS011;65265;53.200;6.080;2023-06-04T00:25:46;4.13;;;1.50;;
76433;SDS011;65265;53.200;6.080;2023-06-04T00:30:38;10.00;;;1.83;;
76433;SDS011;65265;53.200;6.080;2023-06-04T00:35:31;6.35;;;1.80;;
76433;SDS011;65265;53.200;6.080;2023-06-04T00:40:26;5.88;;;1.27;;
76433;SDS011;65265;53.200;6.080;2023-06-04T00:45:19;6.07;;;1.98;;
76433;SDS011;65265;53.200;6.080;2023-06-04T00:50:13;4.78;;;1.02;;
76433;SDS011;65265;53.200;6.080;2023-06-04T00:55:05;6.07;;;1.83;;
76433;SDS011;65265;53.200;6.080;2023-06-04T01:00:02;2.83;;;1.17;;
76433;SDS011;65265;53.200;6.080;2023-06-04T01:04:58;4.72;;;1.23;;
76433;SDS011;65265;53.200;6.080;2023-06-04T01:09:54;5.60;;;1.38;;
76433;SDS011;65265;53.200;6.080;2023-06-04T01:14:47;1.60;;;1.42;;
76433;SDS011;65265;53.200;6.080;2023-06-04T01:19:48;7.43;;;3.05;;
76433;SDS011;65265;53.200;6.080;2023-06-04T01:24:55;6.50;;;2.45;;
76433;SDS011;65265;53.200;6.080;2023-06-04T01:29:51;3.22;;;1.38;;
76433;SDS011;65265;53.200;6.080;2023-06-04T01:34:48;4.32;;;1.40;;
76433;SDS011;65265;53.200;6.080;2023-06-04T01:39:41;3.85;;;1.10;;
76433;SDS011;65265;53.200;6.080;2023-06-04T01:44:33;3.67;;;1.65;;
76433;SDS011;65265;53.200;6.080;2023-06-04T01:49:27;2.88;;;1.08;;
76433;SDS011;65265;53.200;6.080;2023-06-04T01:54:22;2.85;;;2.03;;
76433;SDS011;65265;53.200;6.080;2023-06-04T01:59:20;3.70;;;1.50;;
76433;SDS011;65265;53.200;6.080;2023-06-04T02:04:13;3.78;;;1.75;;
76433;SDS011;65265;53.200;6.080;2023-06-04T02:09:05;4.30;;;1.70;;
76433;SDS011;65265;53.200;6.080;2023-06-04T02:18:59;4.53;;;1.85;;
76433;SDS011;65265;53.200;6.080;2023-06-04T02:28:42;5.30;;;2.05;;
76433;SDS011;65265;53.200;6.080;2023-06-04T02:33:33;3.78;;;1.75;;
76433;SDS011;65265;53.200;6.080;2023-06-04T02:38:26;2.65;;;1.67;;
76433;SDS011;65265;53.200;6.080;2023-06-04T02:43:17;3.78;;;1.77;;
76433;SDS011;65265;53.200;6.080;2023-06-04T02:48:09;4.10;;;3.03;;
76433;SDS011;65265;53.200;6.080;2023-06-04T02:53:00;4.93;;;1.95;;
76433;SDS011;65265;53.200;6.080;2023-06-04T02:57:54;4.68;;;1.90;;
76433;SDS011;65265;53.200;6.080;2023-06-04T03:02:46;3.03;;;1.58;;
76433;SDS011;65265;53.200;6.080;2023-06-04T03:07:39;2.45;;;2.17;;
76433;SDS011;65265;53.200;6.080;2023-06-04T03:12:32;2.35;;;1.58;;
76433;SDS011;65265;53.200;6.080;2023-06-04T03:17:25;3.70;;;2.30;;
76433;SDS011;65265;53.200;6.080;2023-06-04T03:22:17;3.08;;;1.75;;
76433;SDS011;65265;53.200;6.080;2023-06-04T03:27:09;5.97;;;2.53;;
76433;SDS011;65265;53.200;6.080;2023-06-04T03:32:01;3.20;;;1.73;;
76433;SDS011;65265;53.200;6.080;2023-06-04T03:36:54;5.18;;;1.80;;
76433;SDS011;65265;53.200;6.080;2023-06-04T03:41:46;5.43;;;2.05;;
76433;SDS011;65265;53.200;6.080;2023-06-04T03:46:37;1.90;;;1.45;;
76433;SDS011;65265;53.200;6.080;2023-06-04T03:51:29;6.30;;;2.08;;
76433;SDS011;65265;53.200;6.080;2023-06-04T03:56:22;3.67;;;2.03;;
76433;SDS011;65265;53.200;6.080;2023-06-04T04:01:13;3.28;;;1.83;;
76433;SDS011;65265;53.200;6.080;2023-06-04T04:06:05;6.45;;;4.50;;
76433;SDS011;65265;53.200;6.080;2023-06-04T04:10:57;13.90;;;5.53;;
76433;SDS011;65265;53.200;6.080;2023-06-04T04:15:50;10.02;;;5.00;;
76433;SDS011;65265;53.200;6.080;2023-06-04T04:20:42;11.25;;;4.60;;
76433;SDS011;65265;53.200;6.080;2023-06-04T04:25:34;7.53;;;4.90;;
76433;SDS011;65265;53.200;6.080;2023-06-04T04:30:26;8.32;;;4.63;;
76433;SDS011;65265;53.200;6.080;2023-06-04T04:35:19;7.32;;;4.10;;
76433;SDS011;65265;53.200;6.080;2023-06-04T04:40:13;7.28;;;4.00;;
76433;SDS011;65265;53.200;6.080;2023-06-04T04:45:05;6.38;;;3.47;;
76433;SDS011;65265;53.200;6.080;2023-06-04T04:49:57;8.40;;;4.13;;
76433;SDS011;65265;53.200;6.080;2023-06-04T04:54:50;8.13;;;3.60;;
76433;SDS011;65265;53.200;6.080;2023-06-04T04:59:45;9.27;;;5.80;;
76433;SDS011;65265;53.200;6.080;2023-06-04T05:04:36;12.05;;;6.88;;
76433;SDS011;65265;53.200;6.080;2023-06-04T05:09:28;10.00;;;5.38;;
76433;SDS011;65265;53.200;6.080;2023-06-04T05:14:21;12.05;;;5.78;;
76433;SDS011;65265;53.200;6.080;2023-06-04T05:19:12;15.70;;;7.13;;
76433;SDS011;65265;53.200;6.080;2023-06-04T05:24:04;13.93;;;7.43;;
76433;SDS011;65265;53.200;6.080;2023-06-04T05:28:55;12.27;;;5.60;;
76433;SDS011;65265;53.200;6.080;2023-06-04T05:33:49;15.05;;;4.97;;
76433;SDS011;65265;53.200;6.080;2023-06-04T05:38:40;12.00;;;4.15;;
76433;SDS011;65265;53.200;6.080;2023-06-04T05:43:32;11.43;;;4.28;;
76433;SDS011;65265;53.200;6.080;2023-06-04T05:48:24;11.55;;;3.20;;
76433;SDS011;65265;53.200;6.080;2023-06-04T05:53:17;4.85;;;1.98;;
76433;SDS011;65265;53.200;6.080;2023-06-04T05:58:09;6.78;;;2.25;;
76433;SDS011;65265;53.200;6.080;2023-06-04T06:03:00;10.30;;;2.40;;
76433;SDS011;65265;53.200;6.080;2023-06-04T06:07:52;7.85;;;2.05;;
76433;SDS011;65265;53.200;6.080;2023-06-04T06:12:47;7.93;;;1.63;;
76433;SDS011;65265;53.200;6.080;2023-06-04T06:22:30;6.25;;;1.65;;
76433;SDS011;65265;53.200;6.080;2023-06-04T06:27:21;6.53;;;1.35;;
76433;SDS011;65265;53.200;6.080;2023-06-04T06:32:14;4.03;;;1.35;;
76433;SDS011;65265;53.200;6.080;2023-06-04T06:37:06;4.90;;;0.85;;
76433;SDS011;65265;53.200;6.080;2023-06-04T06:41:57;6.50;;;1.70;;
76433;SDS011;65265;53.200;6.080;2023-06-04T06:46:49;3.95;;;0.57;;
76433;SDS011;65265;53.200;6.080;2023-06-04T06:51:42;4.28;;;1.45;;
76433;SDS011;65265;53.200;6.080;2023-06-04T06:56:33;4.97;;;1.17;;
76433;SDS011;65265;53.200;6.080;2023-06-04T07:01:25;5.22;;;1.48;;
76433;SDS011;65265;53.200;6.080;2023-06-04T07:06:17;5.50;;;1.25;;
76433;SDS011;65265;53.200;6.080;2023-06-04T07:11:09;5.63;;;0.73;;
76433;SDS011;65265;53.200;6.080;2023-06-04T07:16:02;19.42;;;1.80;;
76433;SDS011;65265;53.200;6.080;2023-06-04T07:20:53;2.28;;;0.77;;
76433;SDS011;65265;53.200;6.080;2023-06-04T07:25:45;3.70;;;0.57;;
76433;SDS011;65265;53.200;6.080;2023-06-04T07:30:38;4.95;;;1.20;;
76433;SDS011;65265;53.200;6.080;2023-06-04T07:35:30;6.85;;;1.10;;
76433;SDS011;65265;53.200;6.080;2023-06-04T07:40:22;6.22;;;1.05;;
76433;SDS011;65265;53.200;6.080;2023-06-04T07:45:13;6.65;;;0.73;;
76433;SDS011;65265;53.200;6.080;2023-06-04T07:50:07;4.32;;;1.27;;
76433;SDS011;65265;53.200;6.080;2023-06-04T07:54:59;3.17;;;0.43;;
76433;SDS011;65265;53.200;6.080;2023-06-04T07:59:51;3.58;;;0.52;;
76433;SDS011;65265;53.200;6.080;2023-06-04T08:04:43;2.58;;;0.93;;
76433;SDS011;65265;53.200;6.080;2023-06-04T08:09:37;2.25;;;0.35;;
76433;SDS011;65265;53.200;6.080;2023-06-04T08:14:29;2.88;;;0.70;;
76433;SDS011;65265;53.200;6.080;2023-06-04T08:19:21;5.85;;;1.55;;
76433;SDS011;65265;53.200;6.080;2023-06-04T08:24:13;7.65;;;1.90;;
76433;SDS011;65265;53.200;6.080;2023-06-04T08:29:06;7.50;;;1.55;;
76433;SDS011;65265;53.200;6.080;2023-06-04T08:33:58;2.22;;;1.45;;
76433;SDS011;65265;53.200;6.080;2023-06-04T08:38:49;3.05;;;1.17;;
76433;SDS011;65265;53.200;6.080;2023-06-04T08:43:42;2.30;;;0.35;;
76433;SDS011;65265;53.200;6.080;2023-06-04T08:48:36;5.07;;;1.05;;
76433;SDS011;65265;53.200;6.080;2023-06-04T08:53:29;2.35;;;0.50;;
76433;SDS011;65265;53.200;6.080;2023-06-04T08:58:21;2.35;;;0.77;;
76433;SDS011;65265;53.200;6.080;2023-06-04T09:03:14;3.65;;;0.90;;
76433;SDS011;65265;53.200;6.080;2023-06-04T09:08:08;3.80;;;0.63;;
76433;SDS011;65265;53.200;6.080;2023-06-04T09:13:02;2.13;;;0.57;;
76433;SDS011;65265;53.200;6.080;2023-06-04T09:17:54;3.60;;;0.70;;
76433;SDS011;65265;53.200;6.080;2023-06-04T09:22:46;2.53;;;0.82;;
76433;SDS011;65265;53.200;6.080;2023-06-04T09:27:39;3.08;;;0.30;;
76433;SDS011;65265;53.200;6.080;2023-06-04T09:32:31;2.00;;;0.50;;
76433;SDS011;65265;53.200;6.080;2023-06-04T09:37:22;12.52;;;1.73;;
76433;SDS011;65265;53.200;6.080;2023-06-04T09:42:14;3.15;;;0.55;;
76433;SDS011;65265;53.200;6.080;2023-06-04T09:47:07;3.67;;;0.43;;
76433;SDS011;65265;53.200;6.080;2023-06-04T09:51:58;1.55;;;0.22;;
76433;SDS011;65265;53.200;6.080;2023-06-04T09:56:50;3.92;;;0.75;;
76433;SDS011;65265;53.200;6.080;2023-06-04T10:01:42;3.53;;;0.60;;
76433;SDS011;65265;53.200;6.080;2023-06-04T10:06:35;4.00;;;0.40;;
76433;SDS011;65265;53.200;6.080;2023-06-04T10:11:30;7.75;;;1.60;;
76433;SDS011;65265;53.200;6.080;2023-06-04T10:16:26;3.30;;;0.82;;
76433;SDS011;65265;53.200;6.080;2023-06-04T10:21:18;5.03;;;1.00;;
76433;SDS011;65265;53.200;6.080;2023-06-04T10:26:13;4.32;;;0.55;;
76433;SDS011;65265;53.200;6.080;2023-06-04T10:31:06;2.08;;;0.85;;
76433;SDS011;65265;53.200;6.080;2023-06-04T10:35:57;2.90;;;0.45;;
76433;SDS011;65265;53.200;6.080;2023-06-04T10:40:49;5.97;;;0.55;;
76433;SDS011;65265;53.200;6.080;2023-06-04T10:45:42;3.10;;;0.63;;
76433;SDS011;65265;53.200;6.080;2023-06-04T10:50:34;3.60;;;0.63;;
76433;SDS011;65265;53.200;6.080;2023-06-04T10:55:42;2.65;;;0.82;;
76433;SDS011;65265;53.200;6.080;2023-06-04T11:00:35;2.72;;;1.50;;
76433;SDS011;65265;53.200;6.080;2023-06-04T11:05:34;3.33;;;0.43;;
76433;SDS011;65265;53.200;6.080;2023-06-04T11:10:30;3.72;;;0.68;;
76433;SDS011;65265;53.200;6.080;2023-06-04T11:15:23;2.15;;;0.63;;
76433;SDS011;65265;53.200;6.080;2023-06-04T11:20:15;3.60;;;0.55;;
76433;SDS011;65265;53.200;6.080;2023-06-04T11:25:09;3.05;;;0.93;;
76433;SDS011;65265;53.200;6.080;2023-06-04T11:30:01;9.65;;;1.15;;
76433;SDS011;65265;53.200;6.080;2023-06-04T11:35:01;2.92;;;0.68;;
76433;SDS011;65265;53.200;6.080;2023-06-04T11:39:54;3.28;;;1.15;;
76433;SDS011;65265;53.200;6.080;2023-06-04T11:44:47;1.65;;;0.68;;
76433;SDS011;65265;53.200;6.080;2023-06-04T11:49:38;2.30;;;0.70;;
76433;SDS011;65265;53.200;6.080;2023-06-04T11:54:33;2.22;;;0.32;;
76433;SDS011;65265;53.200;6.080;2023-06-04T11:59:28;1.40;;;0.30;;
76433;SDS011;65265;53.200;6.080;2023-06-04T12:04:21;2.53;;;0.50;;
76433;SDS011;65265;53.200;6.080;2023-06-04T12:09:19;2.38;;;0.28;;
76433;SDS011;65265;53.200;6.080;2023-06-04T12:14:16;1.88;;;0.52;;
76433;SDS011;65265;53.200;6.080;2023-06-04T12:19:09;2.78;;;0.40;;
76433;SDS011;65265;53.200;6.080;2023-06-04T12:24:07;3.15;;;0.47;;
76433;SDS011;65265;53.200;6.080;2023-06-04T12:29:00;2.70;;;0.45;;
76433;SDS011;65265;53.200;6.080;2023-06-04T12:33:52;2.50;;;0.80;;
76433;SDS011;65265;53.200;6.080;2023-06-04T12:38:43;4.00;;;0.55;;
76433;SDS011;65265;53.200;6.080;2023-06-04T12:43:36;2.60;;;0.10;;
76433;SDS011;65265;53.200;6.080;2023-06-04T12:48:28;1.55;;;0.45;;
76433;SDS011;65265;53.200;6.080;2023-06-04T12:53:19;3.88;;;0.93;;
76433;SDS011;65265;53.200;6.080;2023-06-04T12:58:11;3.40;;;0.35;;
76433;SDS011;65265;53.200;6.080;2023-06-04T13:03:04;3.00;;;0.38;;
76433;SDS011;65265;53.200;6.080;2023-06-04T13:07:55;4.25;;;0.77;;
76433;SDS011;65265;53.200;6.080;2023-06-04T13:12:47;2.95;;;0.52;;
76433;SDS011;65265;53.200;6.080;2023-06-04T13:17:38;2.53;;;0.47;;
76433;SDS011;65265;53.200;6.080;2023-06-04T13:27:22;4.32;;;0.85;;
76433;SDS011;65265;53.200;6.080;2023-06-04T13:32:14;2.15;;;0.20;;
76433;SDS011;65265;53.200;6.080;2023-06-04T13:37:05;2.45;;;0.50;;
76433;SDS011;65265;53.200;6.080;2023-06-04T13:42:02;3.88;;;0.55;;
76433;SDS011;65265;53.200;6.080;2023-06-04T13:46:54;6.93;;;0.45;;
76433;SDS011;65265;53.200;6.080;2023-06-04T13:51:45;2.22;;;0.25;;
76433;SDS011;65265;53.200;6.080;2023-06-04T13:56:37;3.55;;;0.93;;
76433;SDS011;65265;53.200;6.080;2023-06-04T14:01:30;5.60;;;0.52;;
76433;SDS011;65265;53.200;6.080;2023-06-04T14:06:21;2.47;;;0.55;;
76433;SDS011;65265;53.200;6.080;2023-06-04T14:11:13;4.55;;;0.63;;
76433;SDS011;65265;53.200;6.080;2023-06-04T14:16:04;6.28;;;0.70;;
76433;SDS011;65265;53.200;6.080;2023-06-04T14:20:58;4.97;;;0.73;;
76433;SDS011;65265;53.200;6.080;2023-06-04T14:25:50;3.05;;;0.60;;
76433;SDS011;65265;53.200;6.080;2023-06-04T14:35:32;2.15;;;0.65;;
76433;SDS011;65265;53.200;6.080;2023-06-04T14:45:17;2.67;;;0.40;;
76433;SDS011;65265;53.200;6.080;2023-06-04T14:50:09;4.82;;;0.57;;
76433;SDS011;65265;53.200;6.080;2023-06-04T14:55:01;2.70;;;0.47;;
76433;SDS011;65265;53.200;6.080;2023-06-04T15:04:45;4.53;;;0.38;;
76433;SDS011;65265;53.200;6.080;2023-06-04T15:09:37;3.20;;;1.15;;
76433;SDS011;65265;53.200;6.080;2023-06-04T15:14:28;1.23;;;0.45;;
76433;SDS011;65265;53.200;6.080;2023-06-04T15:19:21;3.13;;;0.50;;
76433;SDS011;65265;53.200;6.080;2023-06-04T15:24:13;2.70;;;0.45;;
76433;SDS011;65265;53.200;6.080;2023-06-04T15:29:04;2.15;;;0.40;;
76433;SDS011;65265;53.200;6.080;2023-06-04T15:33:58;2.53;;;0.40;;
76433;SDS011;65265;53.200;6.080;2023-06-04T15:38:51;5.20;;;0.65;;
76433;SDS011;65265;53.200;6.080;2023-06-04T15:43:43;2.47;;;0.50;;
76433;SDS011;65265;53.200;6.080;2023-06-04T15:53:26;1.45;;;0.43;;
76433;SDS011;65265;53.200;6.080;2023-06-04T15:58:19;3.95;;;1.08;;
76433;SDS011;65265;53.200;6.080;2023-06-04T16:03:10;2.25;;;1.60;;
76433;SDS011;65265;53.200;6.080;2023-06-04T16:08:01;3.00;;;0.73;;
76433;SDS011;65265;53.200;6.080;2023-06-04T16:12:53;2.45;;;0.28;;
76433;SDS011;65265;53.200;6.080;2023-06-04T16:17:46;4.55;;;0.52;;
76433;SDS011;65265;53.200;6.080;2023-06-04T16:22:38;3.97;;;0.43;;
76433;SDS011;65265;53.200;6.080;2023-06-04T16:27:29;4.10;;;0.68;;
76433;SDS011;65265;53.200;6.080;2023-06-04T16:32:21;3.17;;;1.33;;
76433;SDS011;65265;53.200;6.080;2023-06-04T16:37:14;2.60;;;0.70;;
76433;SDS011;65265;53.200;6.080;2023-06-04T16:42:06;2.78;;;1.05;;
76433;SDS011;65265;53.200;6.080;2023-06-04T16:46:59;3.17;;;0.95;;
76433;SDS011;65265;53.200;6.080;2023-06-04T16:51:51;3.13;;;1.10;;
76433;SDS011;65265;53.200;6.080;2023-06-04T16:56:44;6.38;;;1.35;;
76433;SDS011;65265;53.200;6.080;2023-06-04T17:01:35;4.25;;;0.93;;
76433;SDS011;65265;53.200;6.080;2023-06-04T17:06:29;3.08;;;0.95;;
76433;SDS011;65265;53.200;6.080;2023-06-04T17:11:20;4.10;;;1.00;;
76433;SDS011;65265;53.200;6.080;2023-06-04T17:16:13;4.78;;;1.05;;
76433;SDS011;65265;53.200;6.080;2023-06-04T17:21:05;2.40;;;0.88;;
76433;SDS011;65265;53.200;6.080;2023-06-04T17:25:56;2.63;;;1.13;;
76433;SDS011;65265;53.200;6.080;2023-06-04T17:30:49;2.40;;;0.55;;
76433;SDS011;65265;53.200;6.080;2023-06-04T17:35:42;5.10;;;1.70;;
76433;SDS011;65265;53.200;6.080;2023-06-04T17:40:34;3.97;;;0.90;;
76433;SDS011;65265;53.200;6.080;2023-06-04T17:45:25;6.88;;;1.45;;
76433;SDS011;65265;53.200;6.080;2023-06-04T17:50:17;4.30;;;1.98;;
76433;SDS011;65265;53.200;6.080;2023-06-04T17:55:10;1.52;;;0.60;;
76433;SDS011;65265;53.200;6.080;2023-06-04T18:00:01;2.58;;;1.63;;
76433;SDS011;65265;53.200;6.080;2023-06-04T18:09:45;2.50;;;0.65;;
76433;SDS011;65265;53.200;6.080;2023-06-04T18:14:38;3.70;;;1.35;;
76433;SDS011;65265;53.200;6.080;2023-06-04T18:19:29;4.20;;;1.42;;
76433;SDS011;65265;53.200;6.080;2023-06-04T18:24:21;2.40;;;1.42;;
76433;SDS011;65265;53.200;6.080;2023-06-04T18:29:13;2.90;;;1.48;;
76433;SDS011;65265;53.200;6.080;2023-06-04T18:34:06;5.07;;;3.10;;
76433;SDS011;65265;53.200;6.080;2023-06-04T18:39:00;2.80;;;1.55;;
76433;SDS011;65265;53.200;6.080;2023-06-04T18:43:53;3.90;;;2.10;;
76433;SDS011;65265;53.200;6.080;2023-06-04T18:48:44;3.15;;;2.33;;
76433;SDS011;65265;53.200;6.080;2023-06-04T18:53:38;3.20;;;1.45;;
76433;SDS011;65265;53.200;6.080;2023-06-04T18:58:29;4.80;;;2.45;;
76433;SDS011;65265;53.200;6.080;2023-06-04T19:03:21;3.70;;;1.45;;
76433;SDS011;65265;53.200;6.080;2023-06-04T19:08:12;3.97;;;2.10;;
76433;SDS011;65265;53.200;6.080;2023-06-04T19:13:05;3.60;;;1.67;;
76433;SDS011;65265;53.200;6.080;2023-06-04T19:17:57;2.60;;;1.48;;
76433;SDS011;65265;53.200;6.080;2023-06-04T19:22:48;5.70;;;3.40;;
76433;SDS011;65265;53.200;6.080;2023-06-04T19:27:40;3.60;;;1.52;;
76433;SDS011;65265;53.200;6.080;2023-06-04T19:32:33;5.18;;;2.13;;
76433;SDS011;65265;53.200;6.080;2023-06-04T19:37:25;3.92;;;2.53;;
76433;SDS011;65265;53.200;6.080;2023-06-04T19:42:16;5.07;;;2.33;;
76433;SDS011;65265;53.200;6.080;2023-06-04T19:47:08;3.53;;;2.22;;
76433;SDS011;65265;53.200;6.080;2023-06-04T19:52:01;4.57;;;2.35;;
76433;SDS011;65265;53.200;6.080;2023-06-04T19:56:53;3.38;;;1.80;;
76433;SDS011;65265;53.200;6.080;2023-06-04T20:01:45;4.97;;;2.60;;
76433;SDS011;65265;53.200;6.080;2023-06-04T20:06:37;4.47;;;2.40;;
76433;SDS011;65265;53.200;6.080;2023-06-04T20:11:30;5.60;;;2.78;;
76433;SDS011;65265;53.200;6.080;2023-06-04T20:16:22;5.53;;;3.15;;
76433;SDS011;65265;53.200;6.080;2023-06-04T20:21:13;5.00;;;2.85;;
76433;SDS011;65265;53.200;6.080;2023-06-04T20:26:04;5.93;;;2.55;;
76433;SDS011;65265;53.200;6.080;2023-06-04T20:30:59;4.35;;;2.60;;
76433;SDS011;65265;53.200;6.080;2023-06-04T20:35:51;3.72;;;3.28;;
76433;SDS011;65265;53.200;6.080;2023-06-04T20:40:42;3.60;;;2.25;;
76433;SDS011;65265;53.200;6.080;2023-06-04T20:45:34;5.35;;;3.13;;
76433;SDS011;65265;53.200;6.080;2023-06-04T20:50:27;5.50;;;3.75;;
76433;SDS011;65265;53.200;6.080;2023-06-04T20:55:19;6.20;;;2.50;;
76433;SDS011;65265;53.200;6.080;2023-06-04T21:00:10;4.43;;;2.63;;
76433;SDS011;65265;53.200;6.080;2023-06-04T21:05:03;4.63;;;2.78;;
76433;SDS011;65265;53.200;6.080;2023-06-04T21:09:56;5.10;;;3.30;;
76433;SDS011;65265;53.200;6.080;2023-06-04T21:14:47;5.28;;;4.18;;
76433;SDS011;65265;53.200;6.080;2023-06-04T21:19:39;7.05;;;3.63;;
76433;SDS011;65265;53.200;6.080;2023-06-04T21:24:30;4.18;;;3.53;;
76433;SDS011;65265;53.200;6.080;2023-06-04T21:29:23;4.88;;;2.75;;
76433;SDS011;65265;53.200;6.080;2023-06-04T21:34:15;4.30;;;3.28;;
76433;SDS011;65265;53.200;6.080;2023-06-04T21:39:06;4.25;;;3.50;;
76433;SDS011;65265;53.200;6.080;2023-06-04T21:43:58;6.22;;;3.40;;
76433;SDS011;65265;53.200;6.080;2023-06-04T21:48:51;6.28;;;2.45;;
76433;SDS011;65265;53.200;6.080;2023-06-04T21:53:42;5.80;;;3.17;;
76433;SDS011;65265;53.200;6.080;2023-06-04T21:58:33;4.05;;;2.40;;
76433;SDS011;65265;53.200;6.080;2023-06-04T22:03:25;5.38;;;3.92;;
76433;SDS011;65265;53.200;6.080;2023-06-04T22:08:19;3.10;;;1.73;;
76433;SDS011;65265;53.200;6.080;2023-06-04T22:13:10;5.15;;;2.97;;
76433;SDS011;65265;53.200;6.080;2023-06-04T22:18:02;3.03;;;2.22;;
76433;SDS011;65265;53.200;6.080;2023-06-04T22:22:53;3.60;;;2.05;;
76433;SDS011;65265;53.200;6.080;2023-06-04T22:27:46;3.90;;;2.65;;
76433;SDS011;65265;53.200;6.080;2023-06-04T22:32:38;4.20;;;2.53;;
76433;SDS011;65265;53.200;6.080;2023-06-04T22:37:29;3.75;;;2.15;;
76433;SDS011;65265;53.200;6.080;2023-06-04T22:42:20;4.32;;;2.20;;
76433;SDS011;65265;53.200;6.080;2023-06-04T22:47:13;4.68;;;2.88;;
76433;SDS011;65265;53.200;6.080;2023-06-04T22:52:05;3.70;;;2.65;;
76433;SDS011;65265;53.200;6.080;2023-06-04T22:56:57;4.45;;;2.47;;
76433;SDS011;65265;53.200;6.080;2023-06-04T23:01:49;4.88;;;3.28;;
76433;SDS011;65265;53.200;6.080;2023-06-04T23:06:42;3.80;;;2.28;;
76433;SDS011;65265;53.200;6.080;2023-06-04T23:16:25;4.10;;;1.88;;
76433;SDS011;65265;53.200;6.080;2023-06-04T23:21:16;3.60;;;2.78;;
76433;SDS011;65265;53.200;6.080;2023-06-04T23:26:09;3.70;;;2.38;;
76433;SDS011;65265;53.200;6.080;2023-06-04T23:31:01;4.85;;;2.70;;
76433;SDS011;65265;53.200;6.080;2023-06-04T23:35:52;3.03;;;1.52;;
76433;SDS011;65265;53.200;6.080;2023-06-04T23:40:44;2.28;;;1.25;;
76433;SDS011;65265;53.200;6.080;2023-06-04T23:45:37;1.45;;;1.05;;
76433;SDS011;65265;53.200;6.080;2023-06-04T23:55:20;2.50;;;1.45;;
